createdAt,value
2022-10-07T00:00:55.903Z,7.80
2022-10-07T00:03:24.295Z,7.78
2022-10-07T00:06:05.195Z,7.78
2022-10-07T00:08:32.643Z,7.75
2022-10-07T00:11:04.739Z,7.75
2022-10-07T00:13:31.247Z,7.74
2022-10-07T00:16:03.758Z,7.77
2022-10-07T00:18:30.164Z,7.76
2022-10-07T00:20:56.493Z,7.74
2022-10-07T00:23:22.815Z,7.81
2022-10-07T00:25:49.147Z,7.79
2022-10-07T00:28:15.518Z,7.79
2022-10-07T00:30:41.969Z,7.74
2022-10-07T00:33:08.321Z,7.77
2022-10-07T00:35:35.433Z,7.75
2022-10-07T00:38:01.800Z,7.70
2022-10-07T00:40:28.156Z,7.66
2022-10-07T00:42:54.453Z,7.65
2022-10-07T00:45:21.141Z,7.61
2022-10-07T00:47:50.217Z,7.61
2022-10-07T00:50:26.418Z,7.62
2022-10-07T00:52:57.333Z,7.57
2022-10-07T00:55:26.826Z,7.54
2022-10-07T00:57:57.184Z,7.56
2022-10-07T01:00:23.984Z,7.58
2022-10-07T01:02:51.655Z,7.51
2022-10-07T01:05:19.086Z,7.53
2022-10-07T01:07:47.937Z,7.56
2022-10-07T01:10:19.831Z,7.59
2022-10-07T01:13:07.996Z,7.57
2022-10-07T01:15:43.414Z,7.49
2022-10-07T01:18:21.441Z,7.50
2022-10-07T01:20:58.385Z,7.48
2022-10-07T01:23:31.035Z,7.50
2022-10-07T01:26:24.273Z,7.55
2022-10-07T01:29:04.765Z,7.51
2022-10-07T01:31:44.096Z,7.51
2022-10-07T01:34:13.849Z,7.49
2022-10-07T01:36:44.002Z,7.51
2022-10-07T01:39:14.859Z,7.51
2022-10-07T01:41:41.296Z,7.48
2022-10-07T01:44:09.889Z,7.45
2022-10-07T01:46:37.875Z,7.41
2022-10-07T01:49:05.728Z,7.39
2022-10-07T01:51:37.016Z,7.37
2022-10-07T01:54:24.043Z,7.34
2022-10-07T01:57:02.534Z,7.30
2022-10-07T02:00:01.520Z,7.35
2022-10-07T02:02:50.352Z,7.27
2022-10-07T02:05:34.180Z,7.26
2022-10-07T02:08:20.647Z,7.30
2022-10-07T02:10:49.625Z,7.35
2022-10-07T02:13:28.604Z,7.38
2022-10-07T02:16:02.401Z,7.33
2022-10-07T02:18:33.024Z,7.32
2022-10-07T02:21:03.860Z,7.37
2022-10-07T02:23:34.153Z,7.35
2022-10-07T02:26:02.886Z,7.34
2022-10-07T02:28:31.532Z,7.42
2022-10-07T02:31:02.908Z,7.33
2022-10-07T02:33:32.143Z,7.31
2022-10-07T02:36:07.238Z,7.36
2022-10-07T02:38:33.722Z,7.30
2022-10-07T02:41:12.012Z,7.27
2022-10-07T02:43:45.523Z,7.25
2022-10-07T02:46:30.094Z,7.24
2022-10-07T02:49:03.150Z,7.26
2022-10-07T02:51:36.139Z,7.24
2022-10-07T02:54:04.288Z,7.13
2022-10-07T02:56:34.402Z,7.14
2022-10-07T02:59:02.086Z,7.10
2022-10-07T03:01:33.770Z,7.17
2022-10-07T03:04:00.808Z,7.12
2022-10-07T03:06:29.484Z,7.11
2022-10-07T03:08:57.879Z,7.02
2022-10-07T03:11:24.477Z,7.02
2022-10-07T03:13:50.791Z,7.09
2022-10-07T03:16:17.156Z,7.05
2022-10-07T03:18:43.477Z,7.04
2022-10-07T03:21:09.773Z,7.07
2022-10-07T03:23:36.061Z,7.08
2022-10-07T03:26:02.526Z,7.07
2022-10-07T03:28:31.197Z,7.07
2022-10-07T03:31:05.599Z,7.05
2022-10-07T03:33:31.989Z,7.00
2022-10-07T03:35:58.265Z,6.93
2022-10-07T03:38:24.637Z,6.91
2022-10-07T03:40:50.953Z,6.94
2022-10-07T03:43:18.068Z,6.93
2022-10-07T03:45:45.343Z,6.89
2022-10-07T03:48:11.651Z,6.90
2022-10-07T03:50:38.067Z,6.86
2022-10-07T03:53:04.969Z,6.87
2022-10-07T03:55:31.325Z,6.82
2022-10-07T03:57:59.694Z,6.79
2022-10-07T04:00:27.069Z,6.80
2022-10-07T04:02:53.504Z,6.83
2022-10-07T04:05:21.263Z,6.82
2022-10-07T04:07:49.122Z,6.78
2022-10-07T04:10:17.398Z,6.80
2022-10-07T04:12:44.492Z,6.81
2022-10-07T04:15:13.566Z,6.78
2022-10-07T04:17:41.197Z,6.80
2022-10-07T04:20:08.406Z,6.78
2022-10-07T04:22:35.006Z,6.79
2022-10-07T04:25:20.401Z,6.79
2022-10-07T04:27:54.518Z,6.81
2022-10-07T04:30:22.220Z,6.69
2022-10-07T04:32:50.495Z,6.76
2022-10-07T04:35:18.030Z,6.82
2022-10-07T04:37:44.686Z,6.80
2022-10-07T04:40:11.182Z,6.84
2022-10-07T04:42:56.089Z,6.82
2022-10-07T04:45:22.396Z,6.75
2022-10-07T04:47:48.688Z,6.76
2022-10-07T04:50:15.377Z,6.79
2022-10-07T04:52:42.940Z,6.76
2022-10-07T04:55:14.205Z,6.75
2022-10-07T04:57:41.275Z,6.71
2022-10-07T05:00:09.018Z,6.76
2022-10-07T05:02:36.287Z,6.77
2022-10-07T05:05:03.841Z,6.71
2022-10-07T05:07:31.802Z,6.71
2022-10-07T05:09:59.077Z,6.68
2022-10-07T05:12:26.436Z,6.71
2022-10-07T05:14:52.766Z,6.69
2022-10-07T05:17:20.114Z,6.68
2022-10-07T05:19:46.387Z,6.66
2022-10-07T05:22:12.652Z,6.66
2022-10-07T05:24:39.602Z,6.66
2022-10-07T05:27:05.879Z,6.53
2022-10-07T05:29:32.158Z,6.55
2022-10-07T05:32:03.921Z,6.61
2022-10-07T05:34:31.843Z,6.61
2022-10-07T05:36:59.260Z,6.56
2022-10-07T05:39:25.563Z,6.57
2022-10-07T05:41:51.878Z,6.62
2022-10-07T05:44:18.630Z,6.65
2022-10-07T05:46:44.904Z,6.67
2022-10-07T05:49:12.070Z,6.72
2022-10-07T05:51:38.326Z,6.77
2022-10-07T05:54:04.651Z,6.72
2022-10-07T05:56:32.210Z,6.69
2022-10-07T05:58:58.540Z,6.68
2022-10-07T06:01:25.420Z,6.68
2022-10-07T06:03:54.306Z,6.67
2022-10-07T06:06:21.233Z,6.73
2022-10-07T06:08:47.962Z,6.80
2022-10-07T06:11:34.276Z,6.81
2022-10-07T06:14:00.642Z,6.85
2022-10-07T06:16:27.505Z,6.86
2022-10-07T06:18:54.685Z,6.88
2022-10-07T06:21:27.676Z,6.91
2022-10-07T06:23:55.507Z,6.92
2022-10-07T06:26:22.397Z,7.01
2022-10-07T06:28:49.699Z,7.08
2022-10-07T06:31:22.482Z,7.08
2022-10-07T06:33:50.321Z,7.14
2022-10-07T06:36:17.228Z,7.26
2022-10-07T06:38:45.511Z,7.31
2022-10-07T06:41:12.086Z,7.41
2022-10-07T06:43:38.409Z,7.50
2022-10-07T06:46:07.120Z,7.57
2022-10-07T06:48:34.894Z,7.67
2022-10-07T06:51:06.008Z,7.71
2022-10-07T06:53:32.707Z,7.79
2022-10-07T06:56:03.322Z,7.93
2022-10-07T06:58:30.251Z,7.95
2022-10-07T07:00:59.567Z,8.01
2022-10-07T07:03:26.812Z,8.10
2022-10-07T07:05:55.020Z,8.18
2022-10-07T07:08:28.921Z,8.25
2022-10-07T07:10:55.688Z,8.30
2022-10-07T07:13:22.288Z,8.38
2022-10-07T07:15:57.189Z,8.51
2022-10-07T07:18:24.311Z,8.61
2022-10-07T07:20:51.672Z,8.71
2022-10-07T07:23:18.305Z,8.78
2022-10-07T07:25:45.805Z,8.84
2022-10-07T07:28:14.465Z,8.94
2022-10-07T07:30:41.376Z,9.00
2022-10-07T07:33:07.749Z,9.11
2022-10-07T07:35:38.412Z,9.20
2022-10-07T07:38:04.819Z,9.29
2022-10-07T07:40:31.122Z,9.32
2022-10-07T07:42:57.465Z,9.38
2022-10-07T07:45:24.274Z,9.48
2022-10-07T07:47:50.659Z,9.53
2022-10-07T07:50:26.848Z,9.66
2022-10-07T07:52:57.314Z,9.73
2022-10-07T07:55:23.977Z,9.76
2022-10-07T07:57:50.534Z,9.83
2022-10-07T08:00:17.108Z,9.92
2022-10-07T08:02:43.684Z,10.08
2022-10-07T08:05:10.510Z,10.14
2022-10-07T08:07:36.781Z,10.16
2022-10-07T08:10:03.468Z,10.26
2022-10-07T08:12:32.102Z,10.36
2022-10-07T08:14:58.414Z,10.40
2022-10-07T08:17:24.737Z,10.36
2022-10-07T08:19:51.086Z,10.44
2022-10-07T08:22:17.593Z,10.55
2022-10-07T08:24:44.313Z,10.69
2022-10-07T08:27:10.617Z,10.76
2022-10-07T08:29:37.800Z,10.80
2022-10-07T08:32:04.102Z,10.95
2022-10-07T08:34:30.382Z,11.01
2022-10-07T08:36:56.682Z,11.13
2022-10-07T08:39:24.508Z,11.30
2022-10-07T08:41:59.920Z,11.31
2022-10-07T08:44:32.752Z,11.43
2022-10-07T08:47:14.731Z,11.53
2022-10-07T08:49:49.605Z,11.66
2022-10-07T08:52:34.536Z,11.67
2022-10-07T08:55:01.487Z,11.79
2022-10-07T08:57:49.377Z,11.92
2022-10-07T09:00:19.911Z,12.04
2022-10-07T09:03:06.428Z,12.19
2022-10-07T09:05:44.174Z,12.15
2022-10-07T09:08:29.929Z,12.30
2022-10-07T09:11:15.350Z,12.25
2022-10-07T09:13:48.513Z,12.27
2022-10-07T09:16:21.279Z,12.45
2022-10-07T09:18:53.272Z,12.77
2022-10-07T09:21:33.689Z,12.92
2022-10-07T09:24:18.705Z,12.81
2022-10-07T09:26:45.041Z,12.90
2022-10-07T09:29:11.744Z,13.05
2022-10-07T09:31:39.818Z,12.96
2022-10-07T09:34:18.185Z,13.02
2022-10-07T09:37:11.043Z,12.95
2022-10-07T09:39:38.259Z,12.91
2022-10-07T09:42:08.591Z,13.04
2022-10-07T09:44:35.426Z,13.07
2022-10-07T09:47:21.169Z,13.06
2022-10-07T09:49:59.643Z,13.19
2022-10-07T09:52:28.944Z,13.23
2022-10-07T09:54:57.369Z,13.45
2022-10-07T09:57:30.400Z,13.61
2022-10-07T10:00:30.344Z,13.78
2022-10-07T10:03:06.225Z,13.85
2022-10-07T10:05:38.983Z,13.91
2022-10-07T10:08:22.855Z,13.91
2022-10-07T10:10:58.317Z,14.09
2022-10-07T10:13:26.599Z,14.34
2022-10-07T10:15:53.277Z,14.34
2022-10-07T10:18:36.456Z,14.33
2022-10-07T10:21:19.741Z,14.30
2022-10-07T10:23:48.976Z,14.37
2022-10-07T10:26:41.878Z,14.65
2022-10-07T10:29:18.272Z,14.59
2022-10-07T10:32:02.983Z,14.75
2022-10-07T10:34:32.362Z,14.81
2022-10-07T10:37:14.663Z,14.66
2022-10-07T10:40:00.378Z,14.52
2022-10-07T10:42:39.136Z,14.57
2022-10-07T10:45:29.158Z,14.65
2022-10-07T10:48:17.360Z,14.85
2022-10-07T10:51:00.285Z,14.78
2022-10-07T10:53:47.071Z,14.70
2022-10-07T10:56:28.586Z,14.61
2022-10-07T10:59:01.854Z,14.59
2022-10-07T11:01:36.312Z,14.67
2022-10-07T11:04:24.420Z,14.80
2022-10-07T11:06:59.327Z,14.73
2022-10-07T11:09:39.683Z,14.66
2022-10-07T11:12:18.064Z,14.70
2022-10-07T11:14:52.572Z,14.77
2022-10-07T11:17:25.088Z,14.92
2022-10-07T11:20:05.756Z,15.00
2022-10-07T11:22:39.580Z,15.11
2022-10-07T11:25:32.817Z,15.12
2022-10-07T11:28:15.068Z,15.25
2022-10-07T11:30:57.982Z,15.22
2022-10-07T11:33:34.258Z,15.28
2022-10-07T11:36:09.038Z,15.36
2022-10-07T11:38:37.320Z,15.50
2022-10-07T11:41:13.951Z,15.56
2022-10-07T11:44:01.416Z,15.55
2022-10-07T11:46:33.878Z,15.58
2022-10-07T11:49:11.814Z,15.54
2022-10-07T11:52:05.008Z,15.82
2022-10-07T11:54:47.662Z,15.90
2022-10-07T11:57:24.408Z,15.90
2022-10-07T12:00:02.228Z,15.84
2022-10-07T12:02:28.599Z,15.88
2022-10-07T12:04:55.836Z,15.85
2022-10-07T12:07:37.334Z,15.86
2022-10-07T12:10:03.741Z,15.69
2022-10-07T12:12:42.681Z,15.72
2022-10-07T12:15:28.086Z,15.82
2022-10-07T12:18:04.045Z,15.71
2022-10-07T12:20:47.993Z,15.60
2022-10-07T12:23:18.275Z,15.82
2022-10-07T12:25:48.493Z,15.84
2022-10-07T12:28:19.110Z,15.95
2022-10-07T12:30:54.375Z,16.02
2022-10-07T12:33:42.926Z,16.15
2022-10-07T12:36:29.214Z,15.91
2022-10-07T12:38:55.807Z,15.92
2022-10-07T12:41:43.069Z,15.95
2022-10-07T12:44:52.785Z,16.01
2022-10-07T12:47:29.643Z,16.04
2022-10-07T12:50:00.665Z,16.06
2022-10-07T12:52:42.518Z,16.23
2022-10-07T12:55:29.778Z,16.24
2022-10-07T12:58:20.637Z,16.23
2022-10-07T13:01:21.588Z,16.17
2022-10-07T13:04:38.855Z,16.05
2022-10-07T13:07:23.574Z,16.04
2022-10-07T13:10:07.068Z,16.05
2022-10-07T13:12:50.658Z,16.15
2022-10-07T13:15:42.426Z,16.26
2022-10-07T13:18:19.133Z,16.28
2022-10-07T13:21:04.104Z,16.38
2022-10-07T13:23:31.903Z,16.43
2022-10-07T13:26:00.965Z,16.45
2022-10-07T13:28:36.242Z,16.45
2022-10-07T13:31:30.180Z,16.34
2022-10-07T13:33:58.558Z,16.35
2022-10-07T13:36:32.856Z,16.28
2022-10-07T13:39:18.655Z,16.34
2022-10-07T13:41:47.709Z,16.46
2022-10-07T13:44:18.155Z,16.22
2022-10-07T13:47:05.936Z,16.18
2022-10-07T13:49:41.007Z,16.20
2022-10-07T13:52:19.206Z,16.13
2022-10-07T13:54:51.590Z,16.01
2022-10-07T13:57:21.397Z,16.00
2022-10-07T13:59:49.195Z,16.02
2022-10-07T14:02:16.209Z,16.04
2022-10-07T14:04:59.509Z,16.02
2022-10-07T14:07:27.629Z,16.02
2022-10-07T14:10:00.153Z,15.93
2022-10-07T14:12:38.271Z,15.93
2022-10-07T14:15:06.321Z,15.98
2022-10-07T14:17:38.321Z,15.94
2022-10-07T14:20:26.789Z,15.82
2022-10-07T14:22:55.974Z,15.88
2022-10-07T14:25:31.430Z,16.01
2022-10-07T14:27:58.565Z,16.08
2022-10-07T14:30:55.849Z,16.08
2022-10-07T14:34:02.147Z,15.88
2022-10-07T14:36:28.843Z,15.73
2022-10-07T14:38:57.988Z,15.70
2022-10-07T14:41:27.197Z,15.53
2022-10-07T14:43:53.699Z,15.48
2022-10-07T14:46:22.755Z,15.50
2022-10-07T14:48:50.256Z,15.49
2022-10-07T14:51:29.358Z,15.55
2022-10-07T14:54:06.475Z,15.58
2022-10-07T14:56:36.475Z,15.57
2022-10-07T14:59:02.804Z,15.67
2022-10-07T15:01:29.697Z,15.68
2022-10-07T15:03:57.357Z,15.66
2022-10-07T15:06:24.763Z,15.61
2022-10-07T15:08:51.137Z,15.64
2022-10-07T15:11:19.278Z,15.59
2022-10-07T15:13:47.566Z,15.36
2022-10-07T15:16:16.852Z,15.44
2022-10-07T15:18:48.152Z,15.39
2022-10-07T15:21:18.025Z,15.47
2022-10-07T15:23:44.925Z,15.33
2022-10-07T15:26:11.312Z,15.36
2022-10-07T15:28:37.643Z,15.34
2022-10-07T15:31:06.618Z,15.28
2022-10-07T15:33:33.264Z,15.22
2022-10-07T15:36:00.081Z,15.26
2022-10-07T15:38:28.657Z,15.23
2022-10-07T15:40:58.650Z,15.13
2022-10-07T15:43:25.547Z,15.03
2022-10-07T15:45:52.425Z,15.02
2022-10-07T15:48:22.931Z,14.93
2022-10-07T15:50:53.584Z,14.97
2022-10-07T15:53:21.917Z,14.98
2022-10-07T15:55:55.601Z,15.00
2022-10-07T15:58:24.455Z,15.00
2022-10-07T16:01:07.472Z,14.90
2022-10-07T16:03:39.995Z,14.87
2022-10-07T16:06:14.480Z,14.84
2022-10-07T16:08:40.910Z,14.90
2022-10-07T16:11:10.062Z,14.89
2022-10-07T16:13:44.581Z,14.82
2022-10-07T16:16:16.898Z,14.80
2022-10-07T16:18:47.232Z,14.70
2022-10-07T16:21:27.740Z,14.58
2022-10-07T16:23:59.217Z,14.50
2022-10-07T16:26:29.793Z,14.50
2022-10-07T16:29:30.735Z,14.58
2022-10-07T16:31:59.139Z,14.57
2022-10-07T16:34:27.524Z,14.52
2022-10-07T16:36:54.887Z,14.50
2022-10-07T16:39:21.704Z,14.40
2022-10-07T16:41:49.323Z,14.41
2022-10-07T16:44:15.762Z,14.35
2022-10-07T16:46:42.740Z,14.38
2022-10-07T16:49:14.366Z,14.35
2022-10-07T16:51:41.166Z,14.26
2022-10-07T16:54:13.609Z,14.27
2022-10-07T16:56:45.952Z,14.24
2022-10-07T16:59:14.932Z,14.28
2022-10-07T17:01:42.825Z,14.23
2022-10-07T17:04:09.590Z,14.13
2022-10-07T17:06:35.980Z,14.17
2022-10-07T17:09:04.302Z,14.15
2022-10-07T17:11:35.616Z,14.08
2022-10-07T17:14:06.541Z,14.04
2022-10-07T17:16:44.200Z,14.07
2022-10-07T17:19:13.157Z,14.03
2022-10-07T17:21:41.711Z,14.07
2022-10-07T17:24:09.070Z,14.04
2022-10-07T17:26:36.413Z,14.01
2022-10-07T17:29:07.407Z,13.98
2022-10-07T17:31:35.417Z,14.03
2022-10-07T17:34:03.283Z,14.09
2022-10-07T17:36:30.975Z,14.02
2022-10-07T17:38:57.896Z,14.09
2022-10-07T17:41:26.987Z,13.87
2022-10-07T17:43:55.991Z,13.90
2022-10-07T17:46:25.515Z,13.82
2022-10-07T17:48:54.498Z,13.76
2022-10-07T17:51:22.306Z,13.67
2022-10-07T17:53:52.534Z,13.68
2022-10-07T17:56:19.731Z,13.68
2022-10-07T17:58:47.960Z,13.73
2022-10-07T18:01:19.340Z,13.65
2022-10-07T18:03:51.592Z,13.66
2022-10-07T18:06:18.527Z,13.68
2022-10-07T18:08:44.884Z,13.68
2022-10-07T18:11:11.214Z,13.74
2022-10-07T18:13:56.045Z,13.76
2022-10-07T18:16:22.653Z,13.74
2022-10-07T18:18:54.185Z,13.75
2022-10-07T18:21:22.287Z,13.72
2022-10-07T18:23:52.583Z,13.63
2022-10-07T18:26:19.111Z,13.57
2022-10-07T18:28:48.912Z,13.58
2022-10-07T18:31:17.366Z,13.60
2022-10-07T18:33:44.636Z,13.60
2022-10-07T18:36:13.818Z,13.57
2022-10-07T18:38:41.800Z,13.49
2022-10-07T18:41:14.423Z,13.46
2022-10-07T18:43:41.833Z,13.33
2022-10-07T18:46:11.244Z,13.37
2022-10-07T18:48:39.765Z,13.42
2022-10-07T18:51:06.882Z,13.39
2022-10-07T18:53:36.454Z,13.31
2022-10-07T18:56:08.808Z,13.33
2022-10-07T18:58:37.041Z,13.29
2022-10-07T19:01:07.311Z,13.27
2022-10-07T19:03:34.795Z,13.23
2022-10-07T19:06:13.054Z,13.31
2022-10-07T19:08:39.408Z,13.35
2022-10-07T19:11:07.835Z,13.29
2022-10-07T19:13:53.529Z,13.29
2022-10-07T19:16:41.254Z,13.27
2022-10-07T19:19:11.831Z,13.26
2022-10-07T19:21:38.596Z,13.27
2022-10-07T19:24:05.282Z,13.29
2022-10-07T19:26:37.423Z,13.26
2022-10-07T19:29:05.467Z,13.20
2022-10-07T19:31:35.279Z,13.17
2022-10-07T19:34:04.688Z,13.18
2022-10-07T19:36:33.955Z,13.09
2022-10-07T19:39:01.439Z,13.03
2022-10-07T19:41:30.667Z,13.08
2022-10-07T19:43:58.004Z,13.08
2022-10-07T19:46:26.104Z,13.00
2022-10-07T19:48:58.138Z,12.99
2022-10-07T19:51:26.792Z,12.89
2022-10-07T19:53:53.124Z,12.97
2022-10-07T19:56:22.271Z,12.97
2022-10-07T19:58:57.666Z,12.97
2022-10-07T20:01:26.836Z,13.05
2022-10-07T20:03:58.919Z,12.99
2022-10-07T20:06:26.098Z,12.99
2022-10-07T20:08:53.467Z,12.99
2022-10-07T20:11:20.057Z,12.96
2022-10-07T20:13:46.462Z,12.81
2022-10-07T20:16:16.612Z,12.70
2022-10-07T20:18:43.888Z,12.63
2022-10-07T20:21:15.779Z,12.49
2022-10-07T20:23:44.340Z,12.43
2022-10-07T20:26:19.124Z,12.41
2022-10-07T20:28:50.486Z,12.42
2022-10-07T20:31:21.186Z,12.37
2022-10-07T20:33:50.042Z,12.27
2022-10-07T20:36:19.265Z,12.17
2022-10-07T20:39:04.234Z,12.12
2022-10-07T20:41:50.026Z,12.16
2022-10-07T20:44:17.827Z,11.96
2022-10-07T20:46:44.537Z,11.94
2022-10-07T20:49:24.861Z,11.92
2022-10-07T20:51:52.908Z,11.76
2022-10-07T20:54:20.830Z,11.70
2022-10-07T20:56:47.317Z,11.75
2022-10-07T20:59:14.125Z,11.72
2022-10-07T21:01:41.135Z,11.71
2022-10-07T21:04:08.562Z,11.64
2022-10-07T21:06:34.943Z,11.61
2022-10-07T21:09:01.434Z,11.67
2022-10-07T21:11:27.876Z,11.66
2022-10-07T21:13:55.928Z,11.47
2022-10-07T21:16:24.027Z,11.40
2022-10-07T21:18:51.015Z,11.42
2022-10-07T21:21:17.783Z,11.39
2022-10-07T21:23:44.939Z,11.32
2022-10-07T21:26:11.661Z,11.34
2022-10-07T21:28:38.546Z,11.23
2022-10-07T21:31:10.273Z,11.28
2022-10-07T21:33:40.758Z,11.27
2022-10-07T21:36:11.162Z,11.14
2022-10-07T21:38:37.658Z,11.18
2022-10-07T21:41:12.953Z,11.15
2022-10-07T21:43:41.169Z,11.08
2022-10-07T21:46:08.645Z,11.07
2022-10-07T21:48:34.989Z,11.03
2022-10-07T21:51:07.060Z,11.03
2022-10-07T21:53:35.903Z,10.89
2022-10-07T21:56:04.543Z,10.91
2022-10-07T21:58:32.576Z,11.03
2022-10-07T22:01:07.316Z,11.02
2022-10-07T22:03:34.672Z,11.06
2022-10-07T22:06:09.132Z,11.10
2022-10-07T22:08:36.371Z,10.99
2022-10-07T22:11:06.389Z,10.92
2022-10-07T22:13:35.556Z,10.96
2022-10-07T22:16:05.503Z,10.94
2022-10-07T22:18:33.436Z,10.92
2022-10-07T22:21:01.480Z,10.87
2022-10-07T22:23:27.761Z,10.92
2022-10-07T22:26:03.203Z,10.93
2022-10-07T22:28:29.890Z,10.84
2022-10-07T22:30:56.403Z,10.84
2022-10-07T22:33:22.799Z,10.81
2022-10-07T22:35:49.067Z,10.72
2022-10-07T22:38:15.394Z,10.75
2022-10-07T22:40:41.900Z,10.71
2022-10-07T22:43:08.975Z,10.68
2022-10-07T22:45:36.157Z,10.70
2022-10-07T22:48:04.040Z,10.65
2022-10-07T22:50:32.201Z,10.57
2022-10-07T22:52:58.482Z,10.54
2022-10-07T22:55:25.947Z,10.51
2022-10-07T22:57:53.060Z,10.55
2022-10-07T23:00:20.891Z,10.57
2022-10-07T23:02:47.574Z,10.56
2022-10-07T23:05:14.135Z,10.47
2022-10-07T23:07:40.423Z,10.37
2022-10-07T23:10:07.432Z,10.35
2022-10-07T23:12:33.705Z,10.41
2022-10-07T23:15:00.004Z,10.36
2022-10-07T23:17:26.688Z,10.34
2022-10-07T23:19:54.248Z,10.41
2022-10-07T23:22:20.569Z,10.42
2022-10-07T23:24:46.836Z,10.43
2022-10-07T23:27:13.217Z,10.38
2022-10-07T23:29:39.476Z,10.32
2022-10-07T23:32:05.836Z,10.29
2022-10-07T23:34:32.135Z,10.26
2022-10-07T23:36:58.408Z,10.22
2022-10-07T23:39:24.911Z,10.34
2022-10-07T23:41:51.320Z,10.24
2022-10-07T23:44:18.169Z,10.23
2022-10-07T23:46:44.695Z,10.08
2022-10-07T23:49:13.157Z,10.11
2022-10-07T23:51:39.428Z,10.12
2022-10-07T23:54:05.822Z,10.07
2022-10-07T23:56:32.760Z,10.10
2022-10-07T23:58:59.090Z,10.16
